sensor_id;sensor_type;location;lat;lon;timestamp;temperature;humidity
49489;SHT31;35382;51.484;11.476;2022-11-27T14:23:49;23.58;59.92
49489;SHT31;35382;51.484;11.476;2022-11-27T14:25:33;24.42;58.41
49489;SHT31;35382;51.484;11.476;2022-11-27T14:27:21;24.55;64.47
49489;SHT31;35382;51.484;11.476;2022-11-27T14:29:10;25.17;57.92
49489;SHT31;35382;51.484;11.476;2022-11-27T14:32:13;24.68;58.25
49489;SHT31;35382;51.484;11.476;2022-11-27T14:33:56;24.35;60.17
49489;SHT31;35382;51.484;11.476;2022-11-27T14:35:39;24.09;61.49
49489;SHT31;35382;51.484;11.476;2022-11-27T14:38:58;24.01;60.22
49489;SHT31;35382;51.484;11.476;2022-11-27T14:40:39;24.00;60.80
49489;SHT31;35382;51.484;11.476;2022-11-27T14:42:23;23.68;59.05
49489;SHT31;35382;51.484;11.476;2022-11-27T14:44:12;23.40;57.96
49489;SHT31;35382;51.484;11.476;2022-11-27T14:45:56;23.26;58.60
49489;SHT31;35382;51.484;11.476;2022-11-27T14:47:40;23.16;60.20
49489;SHT31;35382;51.484;11.476;2022-11-27T14:49:27;23.13;60.68
49489;SHT31;35382;51.484;11.476;2022-11-27T14:51:15;23.10;60.67
49489;SHT31;35382;51.484;11.476;2022-11-27T14:52:57;23.06;60.73
49489;SHT31;35382;51.484;11.476;2022-11-27T14:54:39;23.04;60.75
49489;SHT31;35382;51.484;11.476;2022-11-27T14:59:19;8.26;76.32
49489;SHT31;35382;51.484;11.476;2022-11-27T15:01:06;6.89;81.42
49489;SHT31;35382;51.484;11.476;2022-11-27T15:02:48;5.66;85.27
49489;SHT31;35382;51.484;11.476;2022-11-27T15:04:40;4.78;88.87
49489;SHT31;35382;51.484;11.476;2022-11-27T15:06:22;4.33;90.83
49489;SHT31;35382;51.484;11.476;2022-11-27T15:08:07;4.13;92.45
49489;SHT31;35382;51.484;11.476;2022-11-27T15:09:50;4.01;93.64
49489;SHT31;35382;51.484;11.476;2022-11-27T15:11:32;3.79;94.61
49489;SHT31;35382;51.484;11.476;2022-11-27T15:13:24;3.73;94.83
49489;SHT31;35382;51.484;11.476;2022-11-27T15:15:12;3.63;95.50
49489;SHT31;35382;51.484;11.476;2022-11-27T15:16:55;3.51;96.18
49489;SHT31;35382;51.484;11.476;2022-11-27T15:18:37;3.33;96.75
49489;SHT31;35382;51.484;11.476;2022-11-27T15:20:25;3.23;97.15
49489;SHT31;35382;51.484;11.476;2022-11-27T15:22:12;3.23;97.38
49489;SHT31;35382;51.484;11.476;2022-11-27T15:23:55;3.33;97.77
49489;SHT31;35382;51.484;11.476;2022-11-27T15:25:38;3.33;97.74
49489;SHT31;35382;51.484;11.476;2022-11-27T15:27:20;3.36;98.00
49489;SHT31;35382;51.484;11.476;2022-11-27T15:29:02;3.31;98.12
49489;SHT31;35382;51.484;11.476;2022-11-27T15:30:44;3.29;98.45
49489;SHT31;35382;51.484;11.476;2022-11-27T15:32:32;3.26;98.50
49489;SHT31;35382;51.484;11.476;2022-11-27T15:36:17;3.09;98.68
49489;SHT31;35382;51.484;11.476;2022-11-27T15:37:58;2.95;98.77
49489;SHT31;35382;51.484;11.476;2022-11-27T15:39:47;2.88;99.00
49489;SHT31;35382;51.484;11.476;2022-11-27T15:41:31;2.88;99.23
49489;SHT31;35382;51.484;11.476;2022-11-27T15:43:14;2.97;99.35
49489;SHT31;35382;51.484;11.476;2022-11-27T15:44:56;2.99;99.42
49489;SHT31;35382;51.484;11.476;2022-11-27T15:46:40;2.94;99.46
49489;SHT31;35382;51.484;11.476;2022-11-27T15:48:21;2.89;99.60
49489;SHT31;35382;51.484;11.476;2022-11-27T15:50:03;2.83;99.73
49489;SHT31;35382;51.484;11.476;2022-11-27T15:51:44;2.80;99.82
49489;SHT31;35382;51.484;11.476;2022-11-27T15:53:25;2.74;99.75
49489;SHT31;35382;51.484;11.476;2022-11-27T15:55:12;2.78;99.77
49489;SHT31;35382;51.484;11.476;2022-11-27T15:56:55;2.83;99.80
49489;SHT31;35382;51.484;11.476;2022-11-27T15:58:36;2.77;99.82
49489;SHT31;35382;51.484;11.476;2022-11-27T16:00:17;2.81;99.99
49489;SHT31;35382;51.484;11.476;2022-11-27T16:01:58;2.78;99.99
49489;SHT31;35382;51.484;11.476;2022-11-27T16:03:39;2.67;99.99
49489;SHT31;35382;51.484;11.476;2022-11-27T16:05:20;2.70;99.99
49489;SHT31;35382;51.484;11.476;2022-11-27T16:07:01;2.78;99.99
49489;SHT31;35382;51.484;11.476;2022-11-27T16:08:42;2.77;99.99
49489;SHT31;35382;51.484;11.476;2022-11-27T16:10:23;2.67;99.99
49489;SHT31;35382;51.484;11.476;2022-11-27T16:12:04;2.61;99.99
49489;SHT31;35382;51.484;11.476;2022-11-27T16:13:46;2.60;99.99
49489;SHT31;35382;51.484;11.476;2022-11-27T16:15:26;2.58;99.99
49489;SHT31;35382;51.484;11.476;2022-11-27T16:17:07;2.48;99.99
49489;SHT31;35382;51.484;11.476;2022-11-27T16:18:49;2.48;99.99
49489;SHT31;35382;51.484;11.476;2022-11-27T16:20:29;2.60;99.99
49489;SHT31;35382;51.484;11.476;2022-11-27T16:22:10;2.57;99.99
49489;SHT31;35382;51.484;11.476;2022-11-27T16:23:59;2.54;99.99
49489;SHT31;35382;51.484;11.476;2022-11-27T16:25:40;2.44;99.99
49489;SHT31;35382;51.484;11.476;2022-11-27T16:27:21;2.47;99.99
49489;SHT31;35382;51.484;11.476;2022-11-27T16:29:06;2.48;99.99
49489;SHT31;35382;51.484;11.476;2022-11-27T16:30:47;2.58;99.99
49489;SHT31;35382;51.484;11.476;2022-11-27T16:32:28;2.57;99.99
49489;SHT31;35382;51.484;11.476;2022-11-27T16:34:09;2.48;99.99
49489;SHT31;35382;51.484;11.476;2022-11-27T16:35:53;2.54;99.99
49489;SHT31;35382;51.484;11.476;2022-11-27T16:37:34;2.62;99.99
49489;SHT31;35382;51.484;11.476;2022-11-27T16:39:16;2.64;99.99
49489;SHT31;35382;51.484;11.476;2022-11-27T16:40:59;2.67;99.99
49489;SHT31;35382;51.484;11.476;2022-11-27T16:42:41;2.71;99.99
49489;SHT31;35382;51.484;11.476;2022-11-27T16:44:22;2.75;99.99
49489;SHT31;35382;51.484;11.476;2022-11-27T16:46:09;2.83;99.99
49489;SHT31;35382;51.484;11.476;2022-11-27T16:47:51;2.78;99.99
49489;SHT31;35382;51.484;11.476;2022-11-27T16:49:32;2.77;99.99
49489;SHT31;35382;51.484;11.476;2022-11-27T16:51:20;2.75;99.99
49489;SHT31;35382;51.484;11.476;2022-11-27T16:53:01;2.78;99.99
49489;SHT31;35382;51.484;11.476;2022-11-27T16:54:42;2.89;99.99
49489;SHT31;35382;51.484;11.476;2022-11-27T16:56:24;3.07;99.99
49489;SHT31;35382;51.484;11.476;2022-11-27T16:58:07;3.36;99.99
49489;SHT31;35382;51.484;11.476;2022-11-27T16:59:48;3.45;99.99
49489;SHT31;35382;51.484;11.476;2022-11-27T17:01:32;3.46;99.98
49489;SHT31;35382;51.484;11.476;2022-11-27T17:03:16;3.43;99.92
49489;SHT31;35382;51.484;11.476;2022-11-27T17:04:57;3.55;99.87
49489;SHT31;35382;51.484;11.476;2022-11-27T17:06:38;3.60;99.84
49489;SHT31;35382;51.484;11.476;2022-11-27T17:08:19;3.66;99.60
49489;SHT31;35382;51.484;11.476;2022-11-27T17:10:00;3.60;99.57
49489;SHT31;35382;51.484;11.476;2022-11-27T17:11:44;3.53;99.57
49489;SHT31;35382;51.484;11.476;2022-11-27T17:13:27;3.58;99.48
49489;SHT31;35382;51.484;11.476;2022-11-27T17:15:09;3.63;99.06
49489;SHT31;35382;51.484;11.476;2022-11-27T17:16:50;3.67;99.01
49489;SHT31;35382;51.484;11.476;2022-11-27T17:18:31;3.76;98.69
49489;SHT31;35382;51.484;11.476;2022-11-27T17:20:12;3.86;98.30
49489;SHT31;35382;51.484;11.476;2022-11-27T17:21:54;3.94;97.69
49489;SHT31;35382;51.484;11.476;2022-11-27T17:23:36;4.07;97.31
49489;SHT31;35382;51.484;11.476;2022-11-27T17:25:17;4.10;96.68
49489;SHT31;35382;51.484;11.476;2022-11-27T17:26:58;4.09;96.60
49489;SHT31;35382;51.484;11.476;2022-11-27T17:28:44;4.13;96.57
49489;SHT31;35382;51.484;11.476;2022-11-27T17:30:25;4.09;96.41
49489;SHT31;35382;51.484;11.476;2022-11-27T17:32:06;4.06;96.56
49489;SHT31;35382;51.484;11.476;2022-11-27T17:33:49;4.13;96.27
49489;SHT31;35382;51.484;11.476;2022-11-27T17:35:32;4.11;96.25
49489;SHT31;35382;51.484;11.476;2022-11-27T17:37:13;4.16;96.36
49489;SHT31;35382;51.484;11.476;2022-11-27T17:38:54;4.13;96.07
49489;SHT31;35382;51.484;11.476;2022-11-27T17:40:35;4.17;96.08
49489;SHT31;35382;51.484;11.476;2022-11-27T17:42:15;4.14;96.04
49489;SHT31;35382;51.484;11.476;2022-11-27T17:43:56;4.10;95.84
49489;SHT31;35382;51.484;11.476;2022-11-27T17:45:40;4.16;95.86
49489;SHT31;35382;51.484;11.476;2022-11-27T17:47:21;4.18;95.66
49489;SHT31;35382;51.484;11.476;2022-11-27T17:49:05;4.17;95.52
49489;SHT31;35382;51.484;11.476;2022-11-27T17:50:47;4.10;95.79
49489;SHT31;35382;51.484;11.476;2022-11-27T17:52:28;4.16;95.85
49489;SHT31;35382;51.484;11.476;2022-11-27T17:54:10;4.10;95.86
49489;SHT31;35382;51.484;11.476;2022-11-27T17:55:51;4.03;95.97
49489;SHT31;35382;51.484;11.476;2022-11-27T17:57:33;4.00;95.98
49489;SHT31;35382;51.484;11.476;2022-11-27T17:59:15;4.16;95.77
49489;SHT31;35382;51.484;11.476;2022-11-27T18:00:59;4.13;95.37
49489;SHT31;35382;51.484;11.476;2022-11-27T18:02:41;4.11;95.67
49489;SHT31;35382;51.484;11.476;2022-11-27T18:04:23;4.07;95.74
49489;SHT31;35382;51.484;11.476;2022-11-27T18:06:04;4.04;95.86
49489;SHT31;35382;51.484;11.476;2022-11-27T18:07:47;4.17;95.44
49489;SHT31;35382;51.484;11.476;2022-11-27T18:09:28;4.09;95.48
49489;SHT31;35382;51.484;11.476;2022-11-27T18:11:20;4.14;95.35
49489;SHT31;35382;51.484;11.476;2022-11-27T18:13:01;4.23;94.94
49489;SHT31;35382;51.484;11.476;2022-11-27T18:14:42;4.09;95.38
49489;SHT31;35382;51.484;11.476;2022-11-27T18:16:27;4.18;95.05
49489;SHT31;35382;51.484;11.476;2022-11-27T18:18:09;4.11;95.24
49489;SHT31;35382;51.484;11.476;2022-11-27T18:19:50;4.07;95.28
49489;SHT31;35382;51.484;11.476;2022-11-27T18:21:31;4.06;95.61
49489;SHT31;35382;51.484;11.476;2022-11-27T18:23:12;4.17;95.02
49489;SHT31;35382;51.484;11.476;2022-11-27T18:24:54;4.03;95.39
49489;SHT31;35382;51.484;11.476;2022-11-27T18:26:35;4.13;95.25
49489;SHT31;35382;51.484;11.476;2022-11-27T18:28:16;4.09;95.20
49489;SHT31;35382;51.484;11.476;2022-11-27T18:29:57;4.23;95.09
49489;SHT31;35382;51.484;11.476;2022-11-27T18:31:38;4.14;94.75
49489;SHT31;35382;51.484;11.476;2022-11-27T18:33:19;4.06;95.06
49489;SHT31;35382;51.484;11.476;2022-11-27T18:35:00;4.14;95.00
49489;SHT31;35382;51.484;11.476;2022-11-27T18:36:41;4.21;94.67
49489;SHT31;35382;51.484;11.476;2022-11-27T18:38:22;4.14;94.57
49489;SHT31;35382;51.484;11.476;2022-11-27T18:40:05;4.03;95.06
49489;SHT31;35382;51.484;11.476;2022-11-27T18:41:46;4.13;94.45
49489;SHT31;35382;51.484;11.476;2022-11-27T18:43:27;4.11;94.62
49489;SHT31;35382;51.484;11.476;2022-11-27T18:45:08;4.11;94.38
49489;SHT31;35382;51.484;11.476;2022-11-27T18:46:49;4.10;94.42
49489;SHT31;35382;51.484;11.476;2022-11-27T18:48:33;4.13;94.62
49489;SHT31;35382;51.484;11.476;2022-11-27T18:50:14;4.07;94.83
49489;SHT31;35382;51.484;11.476;2022-11-27T18:51:55;4.00;94.80
49489;SHT31;35382;51.484;11.476;2022-11-27T18:53:36;3.89;95.41
49489;SHT31;35382;51.484;11.476;2022-11-27T18:55:17;3.83;95.71
49489;SHT31;35382;51.484;11.476;2022-11-27T18:56:58;3.83;95.72
49489;SHT31;35382;51.484;11.476;2022-11-27T18:58:40;3.83;95.87
49489;SHT31;35382;51.484;11.476;2022-11-27T19:00:21;3.91;95.56
49489;SHT31;35382;51.484;11.476;2022-11-27T19:02:02;3.96;95.44
49489;SHT31;35382;51.484;11.476;2022-11-27T19:03:43;4.24;93.99
49489;SHT31;35382;51.484;11.476;2022-11-27T19:05:24;4.25;93.23
49489;SHT31;35382;51.484;11.476;2022-11-27T19:07:06;4.20;93.63
49489;SHT31;35382;51.484;11.476;2022-11-27T19:08:47;4.18;93.45
49489;SHT31;35382;51.484;11.476;2022-11-27T19:10:29;4.36;93.02
49489;SHT31;35382;51.484;11.476;2022-11-27T19:12:10;4.24;92.95
49489;SHT31;35382;51.484;11.476;2022-11-27T19:13:54;4.21;93.41
49489;SHT31;35382;51.484;11.476;2022-11-27T19:15:38;4.10;93.40
49489;SHT31;35382;51.484;11.476;2022-11-27T19:17:19;4.16;93.55
49489;SHT31;35382;51.484;11.476;2022-11-27T19:19:03;4.11;93.19
49489;SHT31;35382;51.484;11.476;2022-11-27T19:20:44;4.07;93.46
49489;SHT31;35382;51.484;11.476;2022-11-27T19:22:25;4.09;93.41
49489;SHT31;35382;51.484;11.476;2022-11-27T19:24:09;4.00;93.70
49489;SHT31;35382;51.484;11.476;2022-11-27T19:25:50;4.17;93.11
49489;SHT31;35382;51.484;11.476;2022-11-27T19:27:31;4.34;92.52
49489;SHT31;35382;51.484;11.476;2022-11-27T19:29:13;4.25;91.53
49489;SHT31;35382;51.484;11.476;2022-11-27T19:30:55;4.27;91.79
49489;SHT31;35382;51.484;11.476;2022-11-27T19:32:36;4.38;91.04
49489;SHT31;35382;51.484;11.476;2022-11-27T19:34:17;4.21;91.79
49489;SHT31;35382;51.484;11.476;2022-11-27T19:35:59;4.27;91.18
49489;SHT31;35382;51.484;11.476;2022-11-27T19:37:41;4.29;91.52
49489;SHT31;35382;51.484;11.476;2022-11-27T19:39:23;4.18;91.90
49489;SHT31;35382;51.484;11.476;2022-11-27T19:41:15;4.21;91.77
49489;SHT31;35382;51.484;11.476;2022-11-27T19:42:57;4.23;92.21
49489;SHT31;35382;51.484;11.476;2022-11-27T19:44:38;4.20;91.84
49489;SHT31;35382;51.484;11.476;2022-11-27T19:46:24;4.18;91.97
49489;SHT31;35382;51.484;11.476;2022-11-27T19:48:06;4.16;92.04
49489;SHT31;35382;51.484;11.476;2022-11-27T19:49:47;4.11;91.81
49489;SHT31;35382;51.484;11.476;2022-11-27T19:51:32;4.00;92.36
49489;SHT31;35382;51.484;11.476;2022-11-27T19:53:13;4.18;92.02
49489;SHT31;35382;51.484;11.476;2022-11-27T19:54:54;4.21;91.34
49489;SHT31;35382;51.484;11.476;2022-11-27T19:56:35;4.16;91.32
49489;SHT31;35382;51.484;11.476;2022-11-27T19:58:18;4.30;91.47
49489;SHT31;35382;51.484;11.476;2022-11-27T19:59:59;4.17;91.27
49489;SHT31;35382;51.484;11.476;2022-11-27T20:01:41;4.13;91.67
49489;SHT31;35382;51.484;11.476;2022-11-27T20:03:22;4.16;91.19
49489;SHT31;35382;51.484;11.476;2022-11-27T20:05:03;4.10;91.74
49489;SHT31;35382;51.484;11.476;2022-11-27T20:06:44;4.14;91.30
49489;SHT31;35382;51.484;11.476;2022-11-27T20:08:25;4.10;91.66
49489;SHT31;35382;51.484;11.476;2022-11-27T20:10:06;4.13;91.42
49489;SHT31;35382;51.484;11.476;2022-11-27T20:11:47;4.24;90.65
49489;SHT31;35382;51.484;11.476;2022-11-27T20:13:28;4.17;90.58
49489;SHT31;35382;51.484;11.476;2022-11-27T20:15:10;4.17;90.44
49489;SHT31;35382;51.484;11.476;2022-11-27T20:16:56;4.13;90.51
49489;SHT31;35382;51.484;11.476;2022-11-27T20:18:38;4.11;89.98
49489;SHT31;35382;51.484;11.476;2022-11-27T20:20:19;4.00;90.83
49489;SHT31;35382;51.484;11.476;2022-11-27T20:22:01;4.09;90.42
49489;SHT31;35382;51.484;11.476;2022-11-27T20:23:44;4.06;90.26
49489;SHT31;35382;51.484;11.476;2022-11-27T20:25:25;4.14;90.02
49489;SHT31;35382;51.484;11.476;2022-11-27T20:27:06;4.16;90.22
49489;SHT31;35382;51.484;11.476;2022-11-27T20:28:49;4.03;90.57
49489;SHT31;35382;51.484;11.476;2022-11-27T20:30:30;3.99;90.61
49489;SHT31;35382;51.484;11.476;2022-11-27T20:32:12;3.87;90.69
49489;SHT31;35382;51.484;11.476;2022-11-27T20:33:55;3.86;91.16
49489;SHT31;35382;51.484;11.476;2022-11-27T20:35:41;3.86;90.83
49489;SHT31;35382;51.484;11.476;2022-11-27T20:37:22;3.83;90.92
49489;SHT31;35382;51.484;11.476;2022-11-27T20:39:03;3.80;90.82
49489;SHT31;35382;51.484;11.476;2022-11-27T20:40:46;3.79;90.89
49489;SHT31;35382;51.484;11.476;2022-11-27T20:42:27;3.75;91.07
49489;SHT31;35382;51.484;11.476;2022-11-27T20:44:09;3.80;90.48
49489;SHT31;35382;51.484;11.476;2022-11-27T20:45:51;3.75;90.69
49489;SHT31;35382;51.484;11.476;2022-11-27T20:47:33;3.79;90.49
49489;SHT31;35382;51.484;11.476;2022-11-27T20:49:15;3.76;90.60
49489;SHT31;35382;51.484;11.476;2022-11-27T20:51:06;3.70;90.87
49489;SHT31;35382;51.484;11.476;2022-11-27T20:52:48;3.73;90.96
49489;SHT31;35382;51.484;11.476;2022-11-27T20:54:29;3.67;91.17
49489;SHT31;35382;51.484;11.476;2022-11-27T20:56:11;3.62;91.32
49489;SHT31;35382;51.484;11.476;2022-11-27T20:57:53;3.63;91.59
49489;SHT31;35382;51.484;11.476;2022-11-27T20:59:34;3.60;91.50
49489;SHT31;35382;51.484;11.476;2022-11-27T21:01:16;3.52;91.80
49489;SHT31;35382;51.484;11.476;2022-11-27T21:02:57;3.52;92.07
49489;SHT31;35382;51.484;11.476;2022-11-27T21:04:38;3.42;92.60
49489;SHT31;35382;51.484;11.476;2022-11-27T21:06:23;3.38;92.70
49489;SHT31;35382;51.484;11.476;2022-11-27T21:08:04;3.29;92.87
49489;SHT31;35382;51.484;11.476;2022-11-27T21:09:45;3.32;92.75
49489;SHT31;35382;51.484;11.476;2022-11-27T21:11:28;3.55;91.95
49489;SHT31;35382;51.484;11.476;2022-11-27T21:13:09;3.76;90.03
49489;SHT31;35382;51.484;11.476;2022-11-27T21:14:50;3.75;90.19
49489;SHT31;35382;51.484;11.476;2022-11-27T21:16:34;3.69;90.54
49489;SHT31;35382;51.484;11.476;2022-11-27T21:18:15;3.67;90.41
49489;SHT31;35382;51.484;11.476;2022-11-27T21:19:56;3.63;90.53
49489;SHT31;35382;51.484;11.476;2022-11-27T21:21:37;3.59;90.51
49489;SHT31;35382;51.484;11.476;2022-11-27T21:23:18;3.58;90.80
49489;SHT31;35382;51.484;11.476;2022-11-27T21:25:01;3.52;90.96
49489;SHT31;35382;51.484;11.476;2022-11-27T21:26:43;3.55;91.16
49489;SHT31;35382;51.484;11.476;2022-11-27T21:28:24;3.51;91.54
49489;SHT31;35382;51.484;11.476;2022-11-27T21:30:06;3.39;92.01
49489;SHT31;35382;51.484;11.476;2022-11-27T21:31:47;3.42;91.96
49489;SHT31;35382;51.484;11.476;2022-11-27T21:33:28;3.32;92.43
49489;SHT31;35382;51.484;11.476;2022-11-27T21:35:09;3.32;92.70
49489;SHT31;35382;51.484;11.476;2022-11-27T21:36:50;3.31;92.74
49489;SHT31;35382;51.484;11.476;2022-11-27T21:38:32;3.43;92.04
49489;SHT31;35382;51.484;11.476;2022-11-27T21:40:13;3.35;92.39
49489;SHT31;35382;51.484;11.476;2022-11-27T21:41:54;3.26;92.84
49489;SHT31;35382;51.484;11.476;2022-11-27T21:43:36;3.28;92.81
49489;SHT31;35382;51.484;11.476;2022-11-27T21:45:17;3.46;92.00
49489;SHT31;35382;51.484;11.476;2022-11-27T21:46:58;3.38;92.07
49489;SHT31;35382;51.484;11.476;2022-11-27T21:48:45;3.31;92.76
49489;SHT31;35382;51.484;11.476;2022-11-27T21:50:27;3.28;92.78
49489;SHT31;35382;51.484;11.476;2022-11-27T21:52:08;3.33;92.67
49489;SHT31;35382;51.484;11.476;2022-11-27T21:53:51;3.33;92.80
49489;SHT31;35382;51.484;11.476;2022-11-27T21:55:37;3.49;91.88
49489;SHT31;35382;51.484;11.476;2022-11-27T21:57:18;3.56;91.61
49489;SHT31;35382;51.484;11.476;2022-11-27T21:58:59;3.43;91.49
49489;SHT31;35382;51.484;11.476;2022-11-27T22:00:40;3.43;91.56
49489;SHT31;35382;51.484;11.476;2022-11-27T22:02:21;3.58;90.38
49489;SHT31;35382;51.484;11.476;2022-11-27T22:04:03;3.69;90.06
49489;SHT31;35382;51.484;11.476;2022-11-27T22:05:44;3.67;89.88
49489;SHT31;35382;51.484;11.476;2022-11-27T22:07:25;3.70;89.55
49489;SHT31;35382;51.484;11.476;2022-11-27T22:09:06;3.66;89.98
49489;SHT31;35382;51.484;11.476;2022-11-27T22:10:47;3.70;89.85
49489;SHT31;35382;51.484;11.476;2022-11-27T22:12:28;3.65;89.88
49489;SHT31;35382;51.484;11.476;2022-11-27T22:14:09;3.63;89.90
49489;SHT31;35382;51.484;11.476;2022-11-27T22:15:52;3.67;89.80
49489;SHT31;35382;51.484;11.476;2022-11-27T22:17:33;3.66;89.78
49489;SHT31;35382;51.484;11.476;2022-11-27T22:19:15;3.83;88.96
49489;SHT31;35382;51.484;11.476;2022-11-27T22:21:02;3.82;89.06
49489;SHT31;35382;51.484;11.476;2022-11-27T22:22:42;3.70;89.39
49489;SHT31;35382;51.484;11.476;2022-11-27T22:24:23;3.80;89.14
49489;SHT31;35382;51.484;11.476;2022-11-27T22:26:08;3.75;89.32
49489;SHT31;35382;51.484;11.476;2022-11-27T22:27:49;3.75;89.10
49489;SHT31;35382;51.484;11.476;2022-11-27T22:29:30;3.69;89.42
49489;SHT31;35382;51.484;11.476;2022-11-27T22:31:17;3.66;89.50
49489;SHT31;35382;51.484;11.476;2022-11-27T22:32:58;3.70;89.63
49489;SHT31;35382;51.484;11.476;2022-11-27T22:34:39;3.91;88.54
49489;SHT31;35382;51.484;11.476;2022-11-27T22:36:21;3.79;89.03
49489;SHT31;35382;51.484;11.476;2022-11-27T22:38:02;3.76;88.89
49489;SHT31;35382;51.484;11.476;2022-11-27T22:39:43;3.79;88.93
49489;SHT31;35382;51.484;11.476;2022-11-27T22:41:26;3.76;88.86
49489;SHT31;35382;51.484;11.476;2022-11-27T22:43:07;3.72;88.94
49489;SHT31;35382;51.484;11.476;2022-11-27T22:44:48;3.69;89.00
49489;SHT31;35382;51.484;11.476;2022-11-27T22:46:32;3.73;89.29
49489;SHT31;35382;51.484;11.476;2022-11-27T22:48:14;3.77;89.11
49489;SHT31;35382;51.484;11.476;2022-11-27T22:49:55;3.72;89.03
49489;SHT31;35382;51.484;11.476;2022-11-27T22:51:36;3.67;89.49
49489;SHT31;35382;51.484;11.476;2022-11-27T22:53:17;3.67;89.25
49489;SHT31;35382;51.484;11.476;2022-11-27T22:54:58;3.66;89.35
49489;SHT31;35382;51.484;11.476;2022-11-27T22:56:39;3.67;89.25
49489;SHT31;35382;51.484;11.476;2022-11-27T22:58:22;3.72;89.01
49489;SHT31;35382;51.484;11.476;2022-11-27T23:00:04;3.73;89.34
49489;SHT31;35382;51.484;11.476;2022-11-27T23:01:46;3.69;89.19
49489;SHT31;35382;51.484;11.476;2022-11-27T23:03:29;3.70;89.28
49489;SHT31;35382;51.484;11.476;2022-11-27T23:05:11;3.69;89.59
49489;SHT31;35382;51.484;11.476;2022-11-27T23:06:53;3.69;89.36
49489;SHT31;35382;51.484;11.476;2022-11-27T23:08:34;3.76;88.91
49489;SHT31;35382;51.484;11.476;2022-11-27T23:10:16;3.76;88.86
49489;SHT31;35382;51.484;11.476;2022-11-27T23:11:57;3.80;88.56
49489;SHT31;35382;51.484;11.476;2022-11-27T23:13:38;3.80;88.57
49489;SHT31;35382;51.484;11.476;2022-11-27T23:15:19;3.75;89.03
49489;SHT31;35382;51.484;11.476;2022-11-27T23:17:00;3.77;88.43
49489;SHT31;35382;51.484;11.476;2022-11-27T23:18:41;3.76;88.95
49489;SHT31;35382;51.484;11.476;2022-11-27T23:20:22;3.67;89.21
49489;SHT31;35382;51.484;11.476;2022-11-27T23:22:03;3.67;89.12
49489;SHT31;35382;51.484;11.476;2022-11-27T23:23:44;3.72;89.08
49489;SHT31;35382;51.484;11.476;2022-11-27T23:25:27;3.80;88.67
49489;SHT31;35382;51.484;11.476;2022-11-27T23:27:08;3.72;88.83
49489;SHT31;35382;51.484;11.476;2022-11-27T23:28:51;3.70;89.20
49489;SHT31;35382;51.484;11.476;2022-11-27T23:30:34;3.76;88.81
49489;SHT31;35382;51.484;11.476;2022-11-27T23:32:15;3.75;89.20
49489;SHT31;35382;51.484;11.476;2022-11-27T23:33:57;3.67;89.35
49489;SHT31;35382;51.484;11.476;2022-11-27T23:35:38;3.67;89.16
49489;SHT31;35382;51.484;11.476;2022-11-27T23:37:19;3.65;89.35
49489;SHT31;35382;51.484;11.476;2022-11-27T23:39:03;3.67;89.49
49489;SHT31;35382;51.484;11.476;2022-11-27T23:40:44;3.60;89.52
49489;SHT31;35382;51.484;11.476;2022-11-27T23:42:25;3.66;89.29
49489;SHT31;35382;51.484;11.476;2022-11-27T23:44:06;3.60;89.25
49489;SHT31;35382;51.484;11.476;2022-11-27T23:45:47;3.65;89.05
49489;SHT31;35382;51.484;11.476;2022-11-27T23:47:28;3.65;89.29
49489;SHT31;35382;51.484;11.476;2022-11-27T23:49:10;3.62;89.21
49489;SHT31;35382;51.484;11.476;2022-11-27T23:50:51;3.56;89.93
49489;SHT31;35382;51.484;11.476;2022-11-27T23:52:32;3.52;90.31
49489;SHT31;35382;51.484;11.476;2022-11-27T23:54:13;3.60;89.90
49489;SHT31;35382;51.484;11.476;2022-11-27T23:55:54;3.51;90.15
49489;SHT31;35382;51.484;11.476;2022-11-27T23:57:35;3.60;89.84
49489;SHT31;35382;51.484;11.476;2022-11-27T23:59:16;3.70;89.11
